Time;durP1;ratioP1;P1;durP2;ratioP2;P2;SDS_P1;SDS_P2;PMS_P1;PMS_P2;Temp;Humidity;BMP_temperature;BMP_pressure;BME280_temperature;BME280_humidity;BME280_pressure;Samples;Min_cycle;Max_cycle;Signal;HPM_P1;HPM_P2
2024/01/07 00:02:26;;;;;;;10.80;6.30;;;;;;;-13.68;100.00;99499.72;5044307;28;20278;-73
2024/01/07 00:04:52;;;;;;;13.93;6.93;;;;;;;-13.71;100.00;99498.00;5077529;28;20139;-73
2024/01/07 00:07:22;;;;;;;16.93;7.47;;;;;;;-13.65;100.00;99495.41;5059162;28;20712;-74
2024/01/07 00:09:48;;;;;;;12.98;5.90;;;;;;;-13.74;100.00;99503.16;5010519;28;20089;-73
2024/01/07 00:12:17;;;;;;;13.17;6.10;;;;;;;-13.65;100.00;99504.78;5079216;28;20059;-73
2024/01/07 00:14:44;;;;;;;14.37;6.47;;;;;;;-13.75;100.00;99503.16;5035394;28;20057;-73
2024/01/07 00:17:12;;;;;;;13.10;6.13;;;;;;;-13.75;100.00;99503.16;4986847;28;20292;-74
2024/01/07 00:19:39;;;;;;;9.07;5.20;;;;;;;-13.76;100.00;99512.53;5003080;28;20280;-74
2024/01/07 00:22:13;;;;;;;12.73;6.07;;;;;;;-13.70;100.00;99516.72;5004795;28;20059;-73
2024/01/07 00:24:42;;;;;;;10.10;5.80;;;;;;;-13.82;100.00;99516.84;5002491;28;20299;-73
2024/01/07 00:27:12;;;;;;;13.17;5.87;;;;;;;-13.74;100.00;99532.94;5002114;28;20289;-74
2024/01/07 00:29:37;;;;;;;12.55;5.78;;;;;;;-13.90;100.00;99524.56;5002312;28;20344;-75
2024/01/07 00:32:03;;;;;;;10.10;5.47;;;;;;;-13.92;100.00;99536.47;5004752;28;20071;-73
2024/01/07 00:34:30;;;;;;;13.00;5.70;;;;;;;-13.94;100.00;99545.84;5043041;28;20044;-76
2024/01/07 00:36:56;;;;;;;8.47;5.30;;;;;;;-13.92;100.00;99551.78;5043087;28;20281;-74
2024/01/07 00:39:23;;;;;;;9.80;5.03;;;;;;;-13.92;100.00;99551.78;5059711;28;20055;-74
2024/01/07 00:41:49;;;;;;;8.23;4.97;;;;;;;-13.89;100.00;99556.88;5058789;28;20286;-73
2024/01/07 00:44:18;;;;;;;9.20;4.93;;;;;;;-13.91;100.00;99563.69;5057525;28;20298;-74
2024/01/07 00:46:44;;;;;;;10.63;5.00;;;;;;;-13.94;100.00;99573.06;5067796;28;20144;-74
2024/01/07 00:49:10;;;;;;;8.67;4.87;;;;;;;-13.96;100.00;99575.63;5034770;28;20877;-74
2024/01/07 00:51:36;;;;;;;15.00;5.83;;;;;;;-13.98;100.00;99576.50;4996869;28;20077;-74
2024/01/07 00:54:01;;;;;;;8.90;5.10;;;;;;;-14.04;100.00;99579.94;5024956;28;20387;-74
2024/01/07 00:56:28;;;;;;;12.03;5.63;;;;;;;-14.11;100.00;99574.88;5042630;28;20157;-73
2024/01/07 00:58:53;;;;;;;8.23;4.57;;;;;;;-14.23;100.00;99595.41;5058627;28;20400;-74
2024/01/07 01:01:19;;;;;;;5.97;4.17;;;;;;;-14.25;100.00;99586.91;5024398;28;20349;-75
2024/01/07 01:03:45;;;;;;;6.63;4.23;;;;;;;-14.30;100.00;99597.13;5024512;28;20043;-73
2024/01/07 01:06:11;;;;;;;10.20;4.47;;;;;;;-14.31;100.00;99601.38;5040828;28;20403;-73
2024/01/07 01:08:37;;;;;;;9.00;4.67;;;;;;;-14.43;100.00;99608.22;5041280;28;20498;-73
2024/01/07 01:11:03;;;;;;;11.10;4.87;;;;;;;-14.47;100.00;99607.41;5040116;28;20293;-74
2024/01/07 01:13:29;;;;;;;12.13;5.33;;;;;;;-14.50;100.00;99606.56;5041562;28;20070;-73
2024/01/07 01:15:56;;;;;;;9.33;4.87;;;;;;;-14.54;100.00;99610.81;5026886;28;20133;-73
2024/01/07 01:18:22;;;;;;;7.73;4.20;;;;;;;-14.56;100.00;99622.72;5090191;27;20771;-74
2024/01/07 01:20:47;;;;;;;7.07;3.43;;;;;;;-14.55;100.00;99624.44;5081870;27;20482;-74
2024/01/07 01:23:13;;;;;;;8.27;4.53;;;;;;;-14.54;100.00;99623.56;5081815;27;20100;-74
2024/01/07 01:25:40;;;;;;;8.87;3.83;;;;;;;-14.50;100.00;99632.88;5099576;27;20035;-74
2024/01/07 01:28:06;;;;;;;7.47;4.00;;;;;;;-14.52;100.00;99637.16;5099026;27;20432;-74
2024/01/07 01:30:31;;;;;;;7.60;4.90;;;;;;;-14.55;100.00;99634.63;5081893;27;20288;-74
2024/01/07 01:32:57;;;;;;;10.90;4.43;;;;;;;-14.57;100.00;99636.31;5082216;27;20136;-74
2024/01/07 01:35:23;;;;;;;5.77;3.50;;;;;;;-14.63;100.00;99636.34;5099835;27;20046;-73
2024/01/07 01:37:49;;;;;;;7.17;3.63;;;;;;;-14.66;100.00;99656.75;5082843;27;20494;-73
2024/01/07 01:40:16;;;;;;;6.67;4.10;;;;;;;-14.64;100.00;99649.09;5083506;27;20134;-74
2024/01/07 01:42:44;;;;;;;7.63;3.88;;;;;;;-14.72;100.00;99669.50;5084647;27;20043;-74
2024/01/07 01:45:10;;;;;;;7.97;4.33;;;;;;;-14.72;100.00;99663.56;5101588;27;20051;-74
2024/01/07 01:47:35;;;;;;;8.17;4.20;;;;;;;-14.62;100.00;99668.63;5102166;27;20827;-73
2024/01/07 01:50:02;;;;;;;6.13;3.73;;;;;;;-14.52;100.00;99670.31;5083116;27;20054;-72
2024/01/07 01:52:28;;;;;;;7.07;4.20;;;;;;;-14.49;100.00;99662.66;5099272;28;20054;-74
2024/01/07 01:54:54;;;;;;;7.33;3.90;;;;;;;-14.37;100.00;99675.34;5081281;28;20288;-73
2024/01/07 01:57:24;;;;;;;9.13;4.27;;;;;;;-14.26;100.00;99672.75;5098070;27;20061;-74
2024/01/07 01:59:50;;;;;;;9.93;4.30;;;;;;;-14.36;100.00;99674.47;5081428;27;20348;-74
2024/01/07 02:02:16;;;;;;;7.07;4.20;;;;;;;-14.35;100.00;99683.84;5081418;28;20191;-73
2024/01/07 02:04:42;;;;;;;10.83;4.30;;;;;;;-14.36;100.00;99694.06;5098300;27;20395;-74
2024/01/07 02:07:08;;;;;;;6.70;3.90;;;;;;;-14.33;100.00;99697.41;5081528;28;20688;-74
2024/01/07 02:09:34;;;;;;;6.90;3.70;;;;;;;-14.27;100.00;99698.25;5082611;28;20047;-73
2024/01/07 02:12:03;;;;;;;9.30;4.33;;;;;;;-14.20;100.00;99707.56;5081600;28;20387;-73
2024/01/07 02:14:29;;;;;;;6.87;3.70;;;;;;;-14.27;100.00;99705.91;5116991;28;20065;-73
2024/01/07 02:16:55;;;;;;;9.60;4.50;;;;;;;-14.20;100.00;99699.91;5100454;27;20825;-74
2024/01/07 02:19:22;;;;;;;8.43;4.20;;;;;;;-14.17;100.00;99710.94;5099123;28;20053;-74
2024/01/07 02:21:50;;;;;;;10.00;4.23;;;;;;;-14.04;100.00;99716.84;5083672;27;20277;-74
2024/01/07 02:24:16;;;;;;;9.63;4.23;;;;;;;-14.11;100.00;99710.91;5102377;27;20053;-73
2024/01/07 02:26:42;;;;;;;8.13;4.50;;;;;;;-14.15;100.00;99706.69;5120592;27;20288;-74
2024/01/07 02:29:08;;;;;;;7.07;4.20;;;;;;;-14.21;100.00;99711.81;5102517;27;20797;-74
2024/01/07 02:31:34;;;;;;;6.00;3.53;;;;;;;-14.28;100.00;99714.44;5119409;27;20058;-74
2024/01/07 02:33:59;;;;;;;10.67;3.87;;;;;;;-14.33;100.00;99712.72;5085243;27;20134;-74
2024/01/07 02:36:25;;;;;;;7.30;4.10;;;;;;;-14.41;100.00;99709.38;5102501;27;20063;-74
2024/01/07 02:38:51;;;;;;;7.23;4.13;;;;;;;-14.53;100.00;99706.81;5087526;27;20039;-74
2024/01/07 02:41:17;;;;;;;7.23;3.87;;;;;;;-14.59;100.00;99714.50;5102006;27;20542;-74
2024/01/07 02:43:42;;;;;;;6.27;3.60;;;;;;;-14.65;100.00;99714.50;5087511;27;20118;-74
2024/01/07 02:46:08;;;;;;;6.70;4.13;;;;;;;-14.74;100.00;99708.56;5085867;27;20050;-74
2024/01/07 02:48:34;;;;;;;6.37;3.47;;;;;;;-14.80;100.00;99718.78;5085118;27;20506;-74
2024/01/07 02:51:03;;;;;;;7.47;4.03;;;;;;;-14.81;100.00;99709.44;5085206;27;20131;-74
2024/01/07 02:53:29;;;;;;;7.32;4.50;;;;;;;-14.90;100.00;99715.41;5101943;27;20071;-74
2024/01/07 02:55:54;;;;;;;6.17;3.97;;;;;;;-14.95;100.00;99726.44;5118643;27;20063;-75
2024/01/07 02:58:20;;;;;;;9.10;4.50;;;;;;;-14.99;100.00;99727.28;5101399;27;20481;-74
2024/01/07 03:00:46;;;;;;;9.33;4.13;;;;;;;-14.98;100.00;99719.66;5102293;27;20039;-74
2024/01/07 03:03:11;;;;;;;8.73;4.10;;;;;;;-15.00;100.00;99736.63;5102667;27;20050;-73
2024/01/07 03:05:37;;;;;;;5.93;3.60;;;;;;;-14.95;100.00;99741.72;5101493;27;20127;-74
2024/01/07 03:08:03;;;;;;;7.77;3.77;;;;;;;-14.94;100.00;99745.94;5101519;27;20050;-74
2024/01/07 03:10:29;;;;;;;9.90;5.03;;;;;;;-14.96;100.00;99745.94;5101375;27;20211;-74
2024/01/07 03:12:55;;;;;;;6.30;3.50;;;;;;;-14.94;100.00;99759.56;5084494;27;20296;-74
2024/01/07 03:15:20;;;;;;;6.17;4.10;;;;;;;-14.97;99.48;99757.00;5100728;27;20047;-75
2024/01/07 03:17:46;;;;;;;8.03;3.80;;;;;;;-15.03;98.86;99764.66;5085474;27;20034;-74
2024/01/07 03:20:12;;;;;;;8.77;4.00;;;;;;;-15.05;98.33;99773.16;5087185;27;20047;-74
2024/01/07 03:22:38;;;;;;;7.90;3.67;;;;;;;-15.09;98.10;99777.38;5085853;27;20058;-74
2024/01/07 03:25:04;;;;;;;9.63;4.07;;;;;;;-15.08;97.42;99779.06;5084415;27;20371;-74
2024/01/07 03:27:30;;;;;;;5.32;3.42;;;;;;;-15.11;97.78;99781.59;5084280;27;20046;-73
2024/01/07 03:29:56;;;;;;;8.57;4.00;;;;;;;-15.10;98.01;99800.31;5101368;27;20501;-74
2024/01/07 03:32:21;;;;;;;8.70;4.40;;;;;;;-15.15;97.50;99786.69;5083830;28;20035;-74
2024/01/07 03:34:47;;;;;;;6.40;3.53;;;;;;;-15.16;96.82;99785.88;5084089;27;20142;-74
2024/01/07 03:37:13;;;;;;;6.27;3.90;;;;;;;-15.28;95.12;99793.47;5085044;27;20039;-73
2024/01/07 03:39:39;;;;;;;10.50;4.83;;;;;;;-15.36;94.58;99799.41;5102285;27;20046;-74
2024/01/07 03:42:11;;;;;;;5.33;3.50;;;;;;;-15.41;94.22;99799.44;5084368;27;20130;-74
2024/01/07 03:44:38;;;;;;;5.75;3.70;;;;;;;-15.42;94.35;99795.16;5084565;27;20050;-74
2024/01/07 03:47:05;;;;;;;9.88;4.32;;;;;;;-15.45;94.32;99805.34;5059156;28;20454;-73
2024/01/07 03:49:30;;;;;;;9.90;4.57;;;;;;;-15.49;95.06;99803.63;5042293;28;20625;-74
2024/01/07 03:51:56;;;;;;;10.43;4.03;;;;;;;-15.56;94.17;99807.03;5026413;28;20411;-74
2024/01/07 03:54:22;;;;;;;6.17;3.80;;;;;;;-15.57;94.64;99817.19;5026772;28;20120;-74
2024/01/07 03:56:48;;;;;;;6.03;3.87;;;;;;;-15.63;94.07;99828.19;5044044;28;20051;-74
2024/01/07 03:59:14;;;;;;;7.37;4.07;;;;;;;-15.65;94.16;99827.31;5026516;28;20040;-74
2024/01/07 04:01:39;;;;;;;10.43;4.20;;;;;;;-15.70;93.53;99831.56;5042260;28;20537;-74
2024/01/07 04:04:06;;;;;;;7.83;4.07;;;;;;;-15.70;93.73;99831.56;5058978;28;20090;-75
2024/01/07 04:06:32;;;;;;;9.75;3.83;;;;;;;-15.66;94.06;99842.59;5025963;28;20055;-74
2024/01/07 04:08:58;;;;;;;6.80;4.17;;;;;;;-15.74;92.58;99841.72;5058971;28;20477;-74
2024/01/07 04:11:24;;;;;;;7.83;3.93;;;;;;;-15.80;93.11;99846.78;5026194;28;20050;-73
2024/01/07 04:13:50;;;;;;;6.30;3.70;;;;;;;-15.87;92.56;99848.44;5027146;28;20074;-74
2024/01/07 04:16:19;;;;;;;9.20;4.45;;;;;;;-15.84;92.65;99861.19;5023358;28;20419;-74
2024/01/07 04:18:46;;;;;;;10.57;4.45;;;;;;;-15.93;92.69;99857.72;5038983;28;20055;-74
2024/01/07 04:21:13;;;;;;;9.55;4.30;;;;;;;-15.94;93.41;99869.59;5055265;28;20056;-74
2024/01/07 04:23:43;;;;;;;7.17;4.00;;;;;;;-15.92;92.97;99867.91;5038941;28;20048;-74
2024/01/07 04:26:09;;;;;;;10.38;5.00;;;;;;;-16.01;92.76;99857.69;5023327;28;20415;-74
2024/01/07 04:28:35;;;;;;;5.63;3.50;;;;;;;-16.05;92.58;99875.47;5022938;28;20044;-74
2024/01/07 04:31:01;;;;;;;8.57;3.83;;;;;;;-16.18;91.51;99867.78;5041741;28;20057;-73
2024/01/07 04:33:27;;;;;;;6.57;3.67;;;;;;;-16.32;91.23;99878.66;5025905;28;20049;-74
2024/01/07 04:35:57;;;;;;;8.93;4.10;;;;;;;-16.37;90.97;99890.47;5024823;28;20048;-74
2024/01/07 04:38:23;;;;;;;;;;;;;;;-16.32;91.93;99888.84;5027196;28;20301;-73
2024/01/07 04:40:48;;;;;;;8.43;3.53;;;;;;;-16.53;92.17;99886.16;5042600;28;19979;-74
2024/01/07 04:43:14;;;;;;;5.63;3.70;;;;;;;-16.54;92.61;99881.94;5022479;28;20052;-74
2024/01/07 04:45:40;;;;;;;5.50;3.17;;;;;;;-16.57;93.33;99887.84;5022694;28;20040;-74
2024/01/07 04:48:06;;;;;;;7.20;3.97;;;;;;;-16.51;93.81;99890.41;5076474;28;20044;-74
2024/01/07 04:50:32;;;;;;;5.75;3.55;;;;;;;-16.53;94.09;99887.03;5081860;28;20062;-73
2024/01/07 04:52:59;;;;;;;8.13;3.70;;;;;;;-16.53;93.40;99889.56;5085417;27;20083;-74
2024/01/07 04:55:25;;;;;;;5.10;3.43;;;;;;;-16.55;93.30;99900.53;5101200;27;20143;-73
2024/01/07 04:57:51;;;;;;;6.40;3.80;;;;;;;-16.60;93.16;99899.66;5063055;28;20384;-74
2024/01/07 05:00:18;;;;;;;9.47;3.57;;;;;;;-16.59;93.84;99903.91;5065186;28;20067;-74
2024/01/07 05:02:44;;;;;;;6.30;3.80;;;;;;;-16.57;93.75;99913.25;5078405;28;20047;-74
2024/01/07 05:05:11;;;;;;;5.80;3.40;;;;;;;-16.46;93.75;99918.41;5080226;28;20047;-73
2024/01/07 05:07:38;;;;;;;5.65;4.07;;;;;;;-16.45;94.48;99928.59;5066530;28;20043;-73
2024/01/07 05:10:04;;;;;;;7.53;3.83;;;;;;;-16.35;94.60;99929.47;5051226;28;20124;-74
2024/01/07 05:12:31;;;;;;;6.90;3.65;;;;;;;-16.32;93.85;99944.75;5085245;28;20083;-74
2024/01/07 05:14:57;;;;;;;9.00;4.30;;;;;;;-16.26;93.31;99937.19;5049393;28;20557;-74
2024/01/07 05:17:22;;;;;;;6.17;3.30;;;;;;;-16.22;92.80;99949.09;5051583;28;20504;-74
2024/01/07 05:19:48;;;;;;;8.40;3.80;;;;;;;-16.14;93.35;99943.22;5118340;28;20035;-74
2024/01/07 05:22:14;;;;;;;6.53;4.00;;;;;;;-16.11;93.18;99940.69;5061626;28;20039;-74
2024/01/07 05:24:39;;;;;;;6.67;3.60;;;;;;;-16.06;93.60;99942.44;5045404;28;20055;-74
2024/01/07 05:27:05;;;;;;;9.97;3.90;;;;;;;-16.08;92.47;99940.72;5046098;28;21045;-74
2024/01/07 05:29:34;;;;;;;5.57;3.63;;;;;;;-16.08;92.01;99934.78;5073813;27;20047;-74
2024/01/07 05:32:02;;;;;;;8.40;3.85;;;;;;;-16.11;91.17;99948.31;5082553;27;20041;-74
2024/01/07 05:34:28;;;;;;;6.38;4.00;;;;;;;-16.22;90.28;99942.28;5081959;27;20051;-74
2024/01/07 05:36:54;;;;;;;9.00;3.88;;;;;;;-16.37;89.59;99941.31;5082034;27;20482;-74
2024/01/07 05:39:20;;;;;;;8.87;4.07;;;;;;;-16.46;89.63;99947.22;5082291;27;20064;-74
2024/01/07 05:41:46;;;;;;;7.30;3.43;;;;;;;-16.52;89.23;99961.56;5098860;27;20050;-74
2024/01/07 05:44:12;;;;;;;9.20;4.25;;;;;;;-16.65;88.63;99952.13;5099950;27;20039;-74
2024/01/07 05:46:41;;;;;;;6.18;3.83;;;;;;;-16.78;88.52;99958.78;5082953;27;20039;-74
2024/01/07 05:49:08;;;;;;;6.82;3.72;;;;;;;-16.93;88.67;99971.31;5087790;27;20043;-74
2024/01/07 05:51:33;;;;;;;6.20;3.83;;;;;;;-17.06;89.35;99977.06;5088599;27;20050;-74
2024/01/07 05:54:00;;;;;;;6.60;3.77;;;;;;;-17.09;89.53;99987.19;5087692;27;20038;-74
2024/01/07 05:56:26;;;;;;;8.48;4.60;;;;;;;-17.24;89.68;99991.22;5102318;27;20047;-74
2024/01/07 05:58:52;;;;;;;9.27;5.00;;;;;;;-17.34;90.02;99997.84;5083591;27;20142;-74
2024/01/07 06:01:21;;;;;;;6.80;4.13;;;;;;;-17.24;91.08;100006.44;5084120;27;20031;-78
2024/01/07 06:03:47;;;;;;;14.80;5.47;;;;;;;-17.36;91.43;100019.84;5116406;27;20047;-74
2024/01/07 06:06:14;;;;;;;10.55;4.80;;;;;;;-17.29;92.88;100028.38;5081775;28;20149;-75
2024/01/07 06:08:43;;;;;;;12.27;4.60;;;;;;;-17.15;94.18;100034.47;5098632;27;20042;-73
2024/01/07 06:11:18;;;;;;;10.30;5.32;;;;;;;-17.18;94.39;100039.53;5082358;28;20039;-74
2024/01/07 06:13:45;;;;;;;9.27;4.70;;;;;;;-17.12;93.55;100042.13;5114289;28;20059;-74
2024/01/07 06:16:12;;;;;;;8.85;4.78;;;;;;;-17.13;93.44;100035.38;5081382;28;20035;-74
2024/01/07 06:18:39;;;;;;;11.70;5.13;;;;;;;-17.24;92.58;100041.97;5082416;28;20047;-74
2024/01/07 06:21:05;;;;;;;7.78;4.05;;;;;;;-17.26;93.15;100044.50;5133085;27;20112;-74
2024/01/07 06:23:35;;;;;;;6.13;3.63;;;;;;;-17.13;92.75;100056.53;5081054;28;20436;-75
2024/01/07 06:26:03;;;;;;;10.45;5.28;;;;;;;-17.09;92.81;100062.47;5132007;27;20043;-74
2024/01/07 06:28:29;;;;;;;7.82;3.70;;;;;;;-17.12;92.61;100067.53;5080818;28;20056;-74
2024/01/07 06:30:55;;;;;;;8.57;4.07;;;;;;;-17.10;92.71;100066.72;5098136;28;20104;-74
2024/01/07 06:33:20;;;;;;;7.13;4.03;;;;;;;-17.07;92.40;100068.44;5081082;28;20058;-74
2024/01/07 06:35:46;;;;;;;10.50;5.30;;;;;;;-17.05;92.24;100075.25;5098759;27;20614;-73
2024/01/07 06:38:14;;;;;;;7.20;4.45;;;;;;;-17.03;92.44;100072.75;5098974;28;20035;-74
2024/01/07 06:40:41;;;;;;;10.00;4.63;;;;;;;-16.99;92.66;100071.94;5059558;28;20150;-74
2024/01/07 06:43:06;;;;;;;7.45;3.88;;;;;;;-16.95;91.84;100072.00;5076308;28;20433;-74
2024/01/07 06:45:32;;;;;;;8.27;4.67;;;;;;;-16.84;91.87;100075.53;5060175;28;20051;-73
2024/01/07 06:47:58;;;;;;;7.50;4.43;;;;;;;-16.76;92.26;100081.56;5046501;28;20104;-73
2024/01/07 06:50:24;;;;;;;5.88;4.05;;;;;;;-16.77;91.77;100082.38;5039228;28;20059;-74
2024/01/07 06:52:52;;;;;;;8.07;3.83;;;;;;;-16.59;92.11;100092.75;5024397;28;20044;-73
2024/01/07 06:55:18;;;;;;;7.80;4.95;;;;;;;-16.60;91.08;100088.50;5040212;28;20149;-73
2024/01/07 06:57:47;;;;;;;5.38;3.95;;;;;;;-16.35;91.31;100097.22;5038097;28;20052;-73
2024/01/07 07:00:15;;;;;;;6.28;4.35;;;;;;;-16.05;90.85;100097.56;5016837;28;20044;-74
2024/01/07 07:02:40;;;;;;;7.57;4.18;;;;;;;-15.92;90.10;100104.47;5000549;28;20418;-74
2024/01/07 07:05:08;;;;;;;6.37;4.30;;;;;;;-15.70;88.81;100100.41;5001358;28;20049;-74
2024/01/07 07:07:34;;;;;;;8.25;4.28;;;;;;;-15.25;88.66;100111.75;5001047;28;20053;-74
2024/01/07 07:10:00;;;;;;;6.83;4.20;;;;;;;-14.75;88.18;100115.47;5004319;28;20409;-74
2024/01/07 07:12:26;;;;;;;6.77;4.07;;;;;;;-14.53;86.09;100124.06;5002673;28;20057;-74
2024/01/07 07:14:52;;;;;;;8.20;4.13;;;;;;;-14.46;83.40;100128.34;5004853;28;20057;-77
2024/01/07 07:17:17;;;;;;;11.03;5.10;;;;;;;-14.46;81.61;100136.00;5003961;28;20291;-74
2024/01/07 07:19:43;;;;;;;10.63;4.47;;;;;;;-14.50;80.05;100124.91;5004198;28;20071;-74
2024/01/07 07:22:10;;;;;;;8.27;4.70;;;;;;;-14.44;81.20;100126.66;4938775;29;20183;-76
2024/01/07 07:24:40;;;;;;;7.13;4.67;;;;;;;-14.22;81.65;100131.78;4907687;29;20415;-74
2024/01/07 07:27:06;;;;;;;9.95;4.63;;;;;;;-14.24;80.99;100127.59;4911327;28;20102;-74
2024/01/07 07:29:31;;;;;;;9.03;4.80;;;;;;;-14.25;79.71;100127.59;4942759;28;20495;-74
2024/01/07 07:31:57;;;;;;;9.10;5.13;;;;;;;-14.23;80.22;100120.78;4927289;28;20483;-74
2024/01/07 07:34:23;;;;;;;8.70;4.47;;;;;;;-14.27;79.13;100118.19;4926255;28;20130;-78
2024/01/07 07:36:49;;;;;;;12.00;4.73;;;;;;;-14.30;78.26;100127.56;4935844;29;20448;-74
2024/01/07 07:39:14;;;;;;;8.90;4.77;;;;;;;-14.34;77.80;100128.38;4920277;29;20064;-74
2024/01/07 07:41:40;;;;;;;7.10;4.37;;;;;;;-14.37;77.36;100128.38;4905326;29;20063;-73
2024/01/07 07:44:07;;;;;;;8.53;4.70;;;;;;;-14.35;76.30;100135.19;4904941;29;20086;-75
2024/01/07 07:46:33;;;;;;;7.70;4.93;;;;;;;-14.27;76.42;100139.47;4920569;29;20784;-73
2024/01/07 07:49:00;;;;;;;8.83;4.63;;;;;;;-14.02;75.79;100147.16;4904977;29;20047;-74
2024/01/07 07:51:28;;;;;;;6.80;3.93;;;;;;;-13.72;75.21;100162.56;4916086;29;20094;-74
2024/01/07 07:53:53;;;;;;;8.60;4.77;;;;;;;-13.19;75.38;100166.00;4923099;28;20727;-73
2024/01/07 07:56:20;;;;;;;8.10;4.60;;;;;;;-12.44;74.41;100167.56;4942227;28;20055;-73
2024/01/07 07:58:46;;;;;;;13.53;4.97;;;;;;;-10.83;74.06;100167.41;4926394;28;20153;-74
2024/01/07 08:01:12;;;;;;;10.77;5.93;;;;;;;-9.97;70.77;100173.25;4925892;28;20389;-75
2024/01/07 08:03:38;;;;;;;12.47;6.07;;;;;;;-9.37;67.63;100177.56;4926406;28;20597;-74
2024/01/07 08:06:05;;;;;;;10.10;5.00;;;;;;;-8.36;65.30;100184.44;4941223;29;20070;-74
2024/01/07 08:08:32;;;;;;;9.90;5.73;;;;;;;-7.36;63.67;100183.19;4925415;29;20771;-75
2024/01/07 08:10:57;;;;;;;12.10;5.37;;;;;;;-6.07;60.23;100186.81;4957837;28;20307;-75
2024/01/07 08:13:24;;;;;;;12.00;6.47;;;;;;;-4.94;56.85;100199.78;4992070;28;20051;-75
2024/01/07 08:15:49;;;;;;;12.20;5.47;;;;;;;-4.31;52.91;100200.28;5008082;28;20137;-76
2024/01/07 08:18:16;;;;;;;9.90;5.00;;;;;;;-4.03;50.55;100198.41;4973636;28;20058;-75
2024/01/07 08:20:41;;;;;;;10.80;5.77;;;;;;;-3.02;49.47;100205.00;4982277;28;20057;-75
2024/01/07 08:23:07;;;;;;;10.47;5.73;;;;;;;-2.03;47.46;100208.63;4984497;28;20451;-75
2024/01/07 08:25:33;;;;;;;10.00;5.90;;;;;;;-0.65;46.12;100205.72;4982825;28;20064;-76
2024/01/07 08:27:59;;;;;;;9.87;5.43;;;;;;;0.36;42.49;100208.34;4999080;28;20068;-75
2024/01/07 08:30:26;;;;;;;9.20;5.30;;;;;;;0.84;39.23;100203.13;4983053;28;20142;-75
2024/01/07 08:32:52;;;;;;;11.77;6.00;;;;;;;1.49;37.00;100210.78;4999748;28;20481;-75
2024/01/07 08:35:17;;;;;;;11.67;6.70;;;;;;;2.19;35.91;100204.88;5011690;28;20058;-75
2024/01/07 08:37:44;;;;;;;9.07;5.77;;;;;;;2.83;35.22;100210.50;5086932;27;20054;-76
2024/01/07 08:40:11;;;;;;;8.90;6.10;;;;;;;3.08;32.96;100210.63;5084995;27;20039;-75
2024/01/07 08:42:37;;;;;;;11.20;6.47;;;;;;;3.29;32.21;100212.75;5117320;27;20494;-75
2024/01/07 08:45:04;;;;;;;10.67;6.43;;;;;;;3.79;31.53;100219.09;5083405;27;20043;-75
2024/01/07 08:47:31;;;;;;;14.15;7.10;;;;;;;4.24;30.38;100218.66;5083088;27;20034;-74
2024/01/07 08:49:57;;;;;;;11.07;6.13;;;;;;;4.59;29.70;100211.81;5099699;27;20039;-75
2024/01/07 08:52:24;;;;;;;9.80;5.85;;;;;;;4.95;29.15;100214.53;5082572;27;20104;-75
2024/01/07 08:54:50;;;;;;;8.77;6.15;;;;;;;5.03;28.29;100209.53;5099459;27;20065;-75
2024/01/07 08:57:16;;;;;;;10.57;6.20;;;;;;;5.09;27.65;100206.44;5083913;27;20078;-74
2024/01/07 08:59:41;;;;;;;8.60;5.80;;;;;;;5.21;27.08;100211.69;5083025;27;20162;-74
2024/01/07 09:02:08;;;;;;;9.80;5.97;;;;;;;5.37;26.97;100214.06;5082707;27;20054;-75
2024/01/07 09:04:33;;;;;;;11.20;6.30;;;;;;;5.47;26.74;100217.72;5101696;27;20039;-74
2024/01/07 09:07:00;;;;;;;10.63;6.15;;;;;;;5.61;26.13;100214.91;5083753;27;20035;-75
2024/01/07 09:09:26;;;;;;;11.32;6.85;;;;;;;5.74;25.77;100218.31;5082826;27;20047;-75
2024/01/07 09:11:52;;;;;;;10.90;6.28;;;;;;;6.16;25.71;100217.78;5082434;27;20062;-75
2024/01/07 09:14:18;;;;;;;9.00;6.05;;;;;;;6.39;24.90;100222.16;5082852;27;20135;-75
2024/01/07 09:16:45;;;;;;;10.55;6.25;;;;;;;6.62;24.37;100217.72;5100636;27;20089;-75
2024/01/07 09:19:12;;;;;;;10.15;6.05;;;;;;;6.77;23.90;100212.09;5100942;27;20081;-75
2024/01/07 09:21:38;;;;;;;10.32;6.05;;;;;;;6.90;23.18;100214.63;5100952;27;20050;-74
2024/01/07 09:24:04;;;;;;;10.27;5.93;;;;;;;7.06;23.06;100208.97;5063043;28;20051;-74
2024/01/07 09:26:31;;;;;;;10.80;6.70;;;;;;;7.30;22.51;100209.63;5062742;28;20047;-76
2024/01/07 09:28:57;;;;;;;10.43;5.68;;;;;;;7.72;22.21;100212.25;5038335;28;20147;-73
2024/01/07 09:31:23;;;;;;;9.40;5.80;;;;;;;7.98;21.81;100207.47;5038814;28;20052;-74
2024/01/07 09:33:50;;;;;;;7.88;5.13;;;;;;;8.12;20.98;100212.44;5021756;28;20481;-74
2024/01/07 09:36:16;;;;;;;12.95;6.32;;;;;;;8.12;20.40;100218.56;5037261;28;20060;-74
2024/01/07 09:38:42;;;;;;;9.73;5.70;;;;;;;8.25;20.26;100213.13;5021348;28;20052;-74
2024/01/07 09:41:08;;;;;;;9.23;6.00;;;;;;;8.27;19.92;100217.31;5021845;28;20101;-75
2024/01/07 09:43:34;;;;;;;10.48;6.22;;;;;;;8.20;19.42;100226.72;5001889;28;20057;-74
2024/01/07 09:46:01;;;;;;;9.77;6.15;;;;;;;8.24;19.61;100228.16;4985438;28;20535;-79
2024/01/07 09:48:28;;;;;;;11.35;6.20;;;;;;;8.27;19.33;100221.78;5002585;28;20049;-74
2024/01/07 09:50:53;;;;;;;12.10;6.30;;;;;;;8.25;19.07;100223.72;5002358;28;20500;-74
2024/01/07 09:53:25;;;;;;;13.25;6.30;;;;;;;8.40;18.94;100225.06;4959607;28;20050;-73
2024/01/07 09:56:20;;;;;;;9.27;5.90;;;;;;;8.54;18.73;100227.38;4977729;28;21084;-74
2024/01/07 09:58:49;;;;;;;10.68;6.07;;;;;;;8.57;18.55;100233.25;4982264;28;20070;-75
2024/01/07 10:01:18;;;;;;;10.43;6.32;;;;;;;8.95;18.45;100229.94;5004631;28;20045;-74
2024/01/07 10:03:44;;;;;;;11.50;6.40;;;;;;;9.09;18.44;100226.94;5000165;28;20580;-74
2024/01/07 10:06:11;;;;;;;10.63;6.53;;;;;;;9.26;18.01;100223.63;4999391;28;20041;-75
2024/01/07 10:08:38;;;;;;;10.98;6.22;;;;;;;9.48;18.09;100230.53;4992007;28;20042;-75
2024/01/07 10:11:04;;;;;;;10.02;6.80;;;;;;;9.22;17.88;100221.41;4942574;28;20167;-76
2024/01/07 10:13:31;;;;;;;11.73;6.57;;;;;;;9.11;17.95;100222.34;4962766;28;20077;-75
2024/01/07 10:15:59;;;;;;;10.95;6.65;;;;;;;9.14;17.89;100230.03;5033401;28;20055;-75
2024/01/07 10:18:34;;;;;;;12.20;7.15;;;;;;;9.08;17.70;100235.88;5034152;28;20052;-76
2024/01/07 10:21:06;;;;;;;;;;;;;;;9.09;17.39;100228.72;5017892;28;20257;-75
2024/01/07 10:23:35;;;;;;;10.95;6.53;;;;;;;8.86;17.19;100230.75;5009732;28;19930;-76
2024/01/07 10:26:02;;;;;;;11.70;6.78;;;;;;;8.73;17.46;100229.28;5008452;28;20077;-75
2024/01/07 10:28:28;;;;;;;12.45;7.40;;;;;;;8.76;17.61;100229.88;5039940;28;20184;-77
2024/01/07 10:30:56;;;;;;;12.73;7.50;;;;;;;8.83;17.34;100233.66;5056653;28;20054;-75
2024/01/07 10:33:24;;;;;;;15.23;7.72;;;;;;;8.62;17.11;100229.38;5039603;28;20503;-75
2024/01/07 10:35:59;;;;;;;14.00;8.10;;;;;;;8.41;17.12;100240.00;5024157;28;20083;-75
2024/01/07 10:38:26;;;;;;;16.30;8.52;;;;;;;7.32;18.19;100242.88;5024571;28;20412;-75
2024/01/07 10:40:55;;;;;;;14.05;7.55;;;;;;;6.39;18.06;100242.41;5098088;28;20047;-75
2024/01/07 10:43:30;;;;;;;10.13;6.75;;;;;;;6.12;18.17;100245.31;5101332;27;20039;-75
2024/01/07 10:45:55;;;;;;;10.98;6.30;;;;;;;5.02;18.23;100242.06;5101342;27;20042;-75
2024/01/07 10:48:25;;;;;;;12.70;6.72;;;;;;;4.49;18.65;100239.72;5083877;27;20055;-75
2024/01/07 10:50:54;;;;;;;15.15;7.20;;;;;;;3.82;18.96;100239.91;5018135;27;20055;-75
2024/01/07 10:53:23;;;;;;;13.57;7.22;;;;;;;3.42;18.88;100245.16;5117794;27;20058;-75
2024/01/07 10:56:00;;;;;;;11.03;6.40;;;;;;;2.90;19.46;100243.28;5084339;27;20108;-74
2024/01/07 10:58:28;;;;;;;13.43;6.60;;;;;;;2.49;19.74;100242.34;5068868;27;20510;-75
2024/01/07 11:00:56;;;;;;;12.40;6.60;;;;;;;3.00;19.94;100253.09;5092182;27;20074;-75
2024/01/07 11:03:37;;;;;;;10.73;6.77;;;;;;;3.87;19.43;100249.19;5102154;27;20050;-74
2024/01/07 11:06:43;;;;;;;13.33;7.23;;;;;;;4.33;18.95;100246.97;5097393;28;20047;-76
2024/01/07 11:09:33;;;;;;;12.38;7.18;;;;;;;4.74;18.66;100244.94;5000204;28;20053;-76
2024/01/07 11:12:00;;;;;;;11.13;6.90;;;;;;;4.93;18.31;100243.59;4969904;28;20131;-75
2024/01/07 11:14:44;;;;;;;11.88;7.32;;;;;;;5.04;18.20;100250.72;4984824;28;20057;-75
2024/01/07 11:17:16;;;;;;;11.80;6.93;;;;;;;5.16;18.08;100249.84;4986374;28;20041;-75
2024/01/07 11:19:52;;;;;;;9.35;6.28;;;;;;;5.08;18.19;100249.53;4985039;28;20064;-78
2024/01/07 11:22:25;;;;;;;10.63;6.10;;;;;;;5.15;18.30;100263.97;4985754;28;20105;-76